LAN840 MUHG-SEGU
Flight info
| Callsign | LAN840 |
|---|---|
| Flight time | 3h 14m |
| Altitude | 35000 |
| Route | KEDAG2 UCU UL347 TBG UL780 UGUPI UGUPI2 |
| Aircraft | A321/M-SDE3FGHIRWY/LB1 |
Departure
| Time | 2026-05-05 16:52 |
|---|---|
| Airport | Frank Pais International Airport (MUHG) |
Arrival
| Time | 2026-05-05 20:06 |
|---|---|
| Airport | José Joaquín de Olmedo International Airport (SEGU) |
| Time | Latitude | Longitude | Altitude | Speed | Heading |
|---|---|---|---|---|---|
| 2026-05-05 16:31 | 20.78926 | -76.30640 | 371 ft | 0 kts | 90° |
| 2026-05-05 16:45 | 20.78928 | -76.30637 | 371 ft | 1 kts | 58° |
| 2026-05-05 16:46 | 20.78963 | -76.30640 | 371 ft | 9 kts | 326° |
| 2026-05-05 16:46 | 20.78952 | -76.30715 | 371 ft | 12 kts | 244° |
| 2026-05-05 16:46 | 20.78942 | -76.30795 | 371 ft | 10 kts | 265° |
| 2026-05-05 16:46 | 20.78937 | -76.30867 | 371 ft | 9 kts | 271° |
| 2026-05-05 16:47 | 20.78942 | -76.30949 | 371 ft | 11 kts | 273° |
| 2026-05-05 16:47 | 20.78946 | -76.31029 | 371 ft | 11 kts | 273° |
| 2026-05-05 16:47 | 20.78916 | -76.31113 | 371 ft | 14 kts | 230° |
| 2026-05-05 16:47 | 20.78851 | -76.31187 | 371 ft | 13 kts | 226° |
| 2026-05-05 16:48 | 20.78783 | -76.31262 | 371 ft | 15 kts | 226° |
| 2026-05-05 16:48 | 20.78707 | -76.31346 | 371 ft | 16 kts | 226° |
| 2026-05-05 16:48 | 20.78608 | -76.31455 | 371 ft | 24 kts | 226° |
| 2026-05-05 16:48 | 20.78489 | -76.31586 | 371 ft | 25 kts | 226° |
| 2026-05-05 16:49 | 20.78369 | -76.31719 | 370 ft | 24 kts | 226° |
| 2026-05-05 16:49 | 20.78256 | -76.31846 | 370 ft | 23 kts | 226° |
| 2026-05-05 16:49 | 20.78145 | -76.31966 | 370 ft | 22 kts | 225° |
| 2026-05-05 16:49 | 20.78043 | -76.32079 | 370 ft | 21 kts | 226° |
| 2026-05-05 16:50 | 20.77937 | -76.32197 | 370 ft | 23 kts | 226° |
| 2026-05-05 16:50 | 20.77829 | -76.32318 | 370 ft | 22 kts | 226° |
| 2026-05-05 16:50 | 20.77726 | -76.32433 | 370 ft | 21 kts | 226° |
| 2026-05-05 16:50 | 20.77633 | -76.32543 | 370 ft | 19 kts | 245° |
| 2026-05-05 16:51 | 20.77582 | -76.32633 | 370 ft | 7 kts | 179° |
| 2026-05-05 16:51 | 20.77580 | -76.32607 | 372 ft | 10 kts | 68° |
| 2026-05-05 16:51 | 20.77787 | -76.32367 | 370 ft | 84 kts | 46° |
| 2026-05-05 16:51 | 20.78370 | -76.31722 | 372 ft | 154 kts | 46° |
| 2026-05-05 16:52 | 20.79206 | -76.30796 | 670 ft | 185 kts | 45° |
| 2026-05-05 16:52 | 20.80083 | -76.29764 | 1526 ft | 186 kts | 56° |
| 2026-05-05 16:52 | 20.80545 | -76.28423 | 2116 ft | 205 kts | 88° |
| 2026-05-05 16:52 | 20.80151 | -76.26932 | 2378 ft | 218 kts | 127° |
| 2026-05-05 16:53 | 20.78913 | -76.25944 | 2486 ft | 236 kts | 154° |
| 2026-05-05 16:53 | 20.77373 | -76.25126 | 2686 ft | 257 kts | 154° |
| 2026-05-05 16:53 | 20.75741 | -76.24263 | 3251 ft | 264 kts | 154° |
| 2026-05-05 16:53 | 20.74084 | -76.23380 | 3949 ft | 268 kts | 153° |
| 2026-05-05 16:54 | 20.72403 | -76.22475 | 4658 ft | 271 kts | 153° |
| 2026-05-05 16:54 | 20.70713 | -76.21563 | 5340 ft | 274 kts | 153° |
| 2026-05-05 16:54 | 20.69022 | -76.20649 | 6012 ft | 276 kts | 153° |
| 2026-05-05 16:54 | 20.67294 | -76.19716 | 6682 ft | 279 kts | 153° |
| 2026-05-05 16:55 | 20.65548 | -76.18773 | 7316 ft | 282 kts | 154° |
| 2026-05-05 16:55 | 20.63789 | -76.17819 | 7960 ft | 284 kts | 153° |
| 2026-05-05 16:55 | 20.62011 | -76.16856 | 8610 ft | 287 kts | 154° |
| 2026-05-05 16:55 | 20.60236 | -76.15895 | 9238 ft | 289 kts | 154° |
| 2026-05-05 16:56 | 20.58431 | -76.14920 | 9875 ft | 292 kts | 154° |
| 2026-05-05 16:56 | 20.56596 | -76.13928 | 10316 ft | 302 kts | 154° |
| 2026-05-05 16:56 | 20.54681 | -76.12897 | 10434 ft | 322 kts | 154° |
| 2026-05-05 16:56 | 20.52617 | -76.11786 | 10555 ft | 341 kts | 154° |
| 2026-05-05 16:57 | 20.50430 | -76.10608 | 10666 ft | 360 kts | 154° |
| 2026-05-05 16:57 | 20.48150 | -76.09379 | 10922 ft | 371 kts | 154° |
| 2026-05-05 16:57 | 20.45829 | -76.08125 | 11394 ft | 376 kts | 154° |
| 2026-05-05 16:57 | 20.43507 | -76.06867 | 11900 ft | 380 kts | 154° |
| 2026-05-05 16:58 | 20.41137 | -76.05582 | 12421 ft | 383 kts | 154° |
| 2026-05-05 16:58 | 20.38733 | -76.04282 | 12938 ft | 387 kts | 154° |
| 2026-05-05 16:58 | 20.36309 | -76.02970 | 13439 ft | 390 kts | 154° |
| 2026-05-05 16:58 | 20.33901 | -76.01669 | 13920 ft | 394 kts | 154° |
| 2026-05-05 16:59 | 20.31438 | -76.00343 | 14347 ft | 397 kts | 154° |
| 2026-05-05 16:59 | 20.28967 | -75.99016 | 14789 ft | 400 kts | 154° |
| 2026-05-05 16:59 | 20.26483 | -75.97684 | 15210 ft | 403 kts | 154° |
| 2026-05-05 16:59 | 20.23956 | -75.96329 | 15637 ft | 406 kts | 154° |
| 2026-05-05 17:00 | 20.21420 | -75.94968 | 16052 ft | 408 kts | 154° |
| 2026-05-05 17:00 | 20.18899 | -75.93613 | 16460 ft | 411 kts | 154° |
| 2026-05-05 17:00 | 20.16334 | -75.92232 | 16859 ft | 414 kts | 154° |
| 2026-05-05 17:00 | 20.13750 | -75.90842 | 17252 ft | 416 kts | 154° |
| 2026-05-05 17:01 | 20.11147 | -75.89443 | 17637 ft | 419 kts | 155° |
| 2026-05-05 17:01 | 20.08556 | -75.88052 | 18028 ft | 422 kts | 155° |
| 2026-05-05 17:01 | 20.05929 | -75.86642 | 18401 ft | 425 kts | 155° |
| 2026-05-05 17:01 | 20.03258 | -75.85250 | 18719 ft | 427 kts | 159° |
| 2026-05-05 17:02 | 20.00426 | -75.84304 | 19028 ft | 427 kts | 171° |
| 2026-05-05 17:02 | 19.97472 | -75.83974 | 19345 ft | 426 kts | 182° |
| 2026-05-05 17:02 | 19.94550 | -75.84261 | 19639 ft | 426 kts | 193° |
| 2026-05-05 17:02 | 19.91710 | -75.85148 | 19943 ft | 425 kts | 204° |
| 2026-05-05 17:03 | 19.88990 | -75.86430 | 20253 ft | 427 kts | 206° |
| 2026-05-05 17:03 | 19.86267 | -75.87721 | 20565 ft | 429 kts | 206° |
| 2026-05-05 17:03 | 19.83523 | -75.89011 | 20883 ft | 432 kts | 206° |
| 2026-05-05 17:03 | 19.80794 | -75.90290 | 21187 ft | 434 kts | 206° |
| 2026-05-05 17:04 | 19.78025 | -75.91591 | 21497 ft | 436 kts | 206° |
| 2026-05-05 17:04 | 19.75229 | -75.92907 | 21815 ft | 438 kts | 206° |
| 2026-05-05 17:04 | 19.72461 | -75.94209 | 22107 ft | 441 kts | 206° |
| 2026-05-05 17:04 | 19.69647 | -75.95532 | 22400 ft | 443 kts | 206° |
| 2026-05-05 17:05 | 19.66818 | -75.96861 | 22693 ft | 445 kts | 206° |
| 2026-05-05 17:05 | 19.63959 | -75.98202 | 22981 ft | 448 kts | 206° |
| 2026-05-05 17:05 | 19.61091 | -75.99550 | 23271 ft | 450 kts | 206° |
| 2026-05-05 17:05 | 19.58268 | -76.00878 | 23544 ft | 452 kts | 206° |
| 2026-05-05 17:06 | 19.55366 | -76.02243 | 23792 ft | 454 kts | 206° |
| 2026-05-05 17:06 | 19.52476 | -76.03604 | 24045 ft | 455 kts | 206° |
| 2026-05-05 17:06 | 19.49567 | -76.04975 | 24297 ft | 456 kts | 206° |
| 2026-05-05 17:06 | 19.46690 | -76.06334 | 24541 ft | 458 kts | 206° |
| 2026-05-05 17:07 | 19.43756 | -76.07715 | 24801 ft | 459 kts | 206° |
| 2026-05-05 17:07 | 19.40829 | -76.09088 | 25049 ft | 460 kts | 206° |
| 2026-05-05 17:07 | 19.37922 | -76.10451 | 25298 ft | 461 kts | 206° |
| 2026-05-05 17:07 | 19.34975 | -76.11831 | 25544 ft | 462 kts | 206° |
| 2026-05-05 17:08 | 19.32015 | -76.13217 | 25788 ft | 463 kts | 206° |
| 2026-05-05 17:08 | 19.29099 | -76.14584 | 26015 ft | 464 kts | 206° |
| 2026-05-05 17:08 | 19.26128 | -76.15979 | 26240 ft | 466 kts | 206° |
| 2026-05-05 17:08 | 19.23153 | -76.17375 | 26462 ft | 467 kts | 206° |
| 2026-05-05 17:09 | 19.20175 | -76.18771 | 26685 ft | 468 kts | 206° |
| 2026-05-05 17:09 | 19.17228 | -76.20150 | 26917 ft | 469 kts | 206° |
| 2026-05-05 17:09 | 19.14214 | -76.21560 | 27146 ft | 470 kts | 206° |
| 2026-05-05 17:09 | 19.11218 | -76.22960 | 27373 ft | 472 kts | 206° |
| 2026-05-05 17:10 | 19.08208 | -76.24364 | 27595 ft | 473 kts | 206° |
| 2026-05-05 17:10 | 19.05221 | -76.25762 | 27803 ft | 474 kts | 206° |
| 2026-05-05 17:10 | 19.02192 | -76.27182 | 28042 ft | 474 kts | 206° |
| 2026-05-05 17:10 | 18.99171 | -76.28594 | 28339 ft | 473 kts | 206° |
| 2026-05-05 17:11 | 18.96164 | -76.29997 | 28644 ft | 472 kts | 206° |
| 2026-05-05 17:11 | 18.93149 | -76.31400 | 28941 ft | 471 kts | 206° |
| 2026-05-05 17:11 | 18.90184 | -76.32778 | 29234 ft | 470 kts | 206° |
| 2026-05-05 17:11 | 18.87186 | -76.34171 | 29531 ft | 469 kts | 206° |
| 2026-05-05 17:12 | 18.84195 | -76.35560 | 29819 ft | 468 kts | 206° |
| 2026-05-05 17:12 | 18.81242 | -76.36933 | 30110 ft | 467 kts | 206° |
| 2026-05-05 17:12 | 18.78266 | -76.38316 | 30343 ft | 467 kts | 206° |
| 2026-05-05 17:12 | 18.75286 | -76.39705 | 30573 ft | 466 kts | 206° |
| 2026-05-05 17:13 | 18.72318 | -76.41090 | 30811 ft | 465 kts | 206° |
| 2026-05-05 17:13 | 18.69382 | -76.42458 | 31050 ft | 465 kts | 206° |
| 2026-05-05 17:13 | 18.66413 | -76.43837 | 31298 ft | 464 kts | 206° |
| 2026-05-05 17:13 | 18.63455 | -76.45210 | 31538 ft | 464 kts | 206° |
| 2026-05-05 17:14 | 18.60490 | -76.46587 | 31786 ft | 463 kts | 206° |
| 2026-05-05 17:14 | 18.57580 | -76.47938 | 32032 ft | 462 kts | 207° |
| 2026-05-05 17:14 | 18.54626 | -76.49307 | 32288 ft | 462 kts | 207° |
| 2026-05-05 17:14 | 18.51681 | -76.50674 | 32539 ft | 461 kts | 207° |
| 2026-05-05 17:15 | 18.48742 | -76.52033 | 32797 ft | 461 kts | 207° |
| 2026-05-05 17:15 | 18.45838 | -76.53375 | 33053 ft | 460 kts | 207° |
| 2026-05-05 17:15 | 18.42904 | -76.54733 | 33311 ft | 459 kts | 207° |
| 2026-05-05 17:15 | 18.39959 | -76.56097 | 33566 ft | 459 kts | 207° |
| 2026-05-05 17:16 | 18.37069 | -76.57433 | 33820 ft | 458 kts | 207° |
| 2026-05-05 17:16 | 18.34145 | -76.58785 | 34079 ft | 457 kts | 207° |
| 2026-05-05 17:16 | 18.31224 | -76.60137 | 34306 ft | 457 kts | 207° |
| 2026-05-05 17:16 | 18.28348 | -76.61469 | 34524 ft | 456 kts | 207° |
| 2026-05-05 17:17 | 18.25426 | -76.62822 | 34754 ft | 455 kts | 207° |
| 2026-05-05 17:17 | 18.22526 | -76.64162 | 34960 ft | 454 kts | 207° |
| 2026-05-05 17:17 | 18.16775 | -76.66812 | 35043 ft | 452 kts | 207° |
| 2026-05-05 17:18 | 18.10998 | -76.69477 | 35036 ft | 452 kts | 207° |
| 2026-05-05 17:18 | 18.05264 | -76.72125 | 35032 ft | 452 kts | 207° |
| 2026-05-05 17:19 | 17.99496 | -76.74784 | 35030 ft | 453 kts | 207° |
| 2026-05-05 17:19 | 17.93680 | -76.77445 | 35033 ft | 461 kts | 205° |
| 2026-05-05 17:20 | 17.87511 | -76.79528 | 35031 ft | 473 kts | 200° |
| 2026-05-05 17:20 | 17.81162 | -76.81538 | 35030 ft | 475 kts | 200° |
| 2026-05-05 17:21 | 17.74832 | -76.83538 | 35032 ft | 475 kts | 200° |
| 2026-05-05 17:22 | 17.65344 | -76.86559 | 35036 ft | 475 kts | 200° |
| 2026-05-05 17:22 | 17.59042 | -76.88562 | 35034 ft | 475 kts | 200° |
| 2026-05-05 17:23 | 17.52720 | -76.90562 | 35039 ft | 475 kts | 200° |
| 2026-05-05 17:23 | 17.46400 | -76.92554 | 35039 ft | 475 kts | 200° |
| 2026-05-05 17:24 | 17.40060 | -76.94558 | 35040 ft | 475 kts | 200° |
| 2026-05-05 17:24 | 17.33715 | -76.96562 | 35042 ft | 475 kts | 200° |
| 2026-05-05 17:25 | 17.27410 | -76.98557 | 35042 ft | 475 kts | 200° |
| 2026-05-05 17:25 | 17.21073 | -77.00564 | 35043 ft | 475 kts | 200° |
| 2026-05-05 17:26 | 17.14764 | -77.02552 | 35044 ft | 474 kts | 200° |
| 2026-05-05 17:26 | 17.08468 | -77.04536 | 35042 ft | 474 kts | 200° |
| 2026-05-05 17:27 | 17.02138 | -77.06533 | 35045 ft | 474 kts | 200° |
| 2026-05-05 17:27 | 16.95836 | -77.08520 | 35043 ft | 474 kts | 200° |
| 2026-05-05 17:28 | 16.89508 | -77.10514 | 35043 ft | 474 kts | 200° |
| 2026-05-05 17:28 | 16.83223 | -77.12486 | 35042 ft | 474 kts | 200° |
| 2026-05-05 17:29 | 16.76893 | -77.14473 | 35040 ft | 473 kts | 200° |
| 2026-05-05 17:29 | 16.70582 | -77.16451 | 35043 ft | 473 kts | 200° |
| 2026-05-05 17:30 | 16.64358 | -77.18405 | 35044 ft | 472 kts | 200° |
| 2026-05-05 17:30 | 16.59103 | -77.20059 | 35045 ft | 472 kts | 200° |
| 2026-05-05 17:31 | 16.51772 | -77.22353 | 35040 ft | 471 kts | 200° |
| 2026-05-05 17:31 | 16.46548 | -77.23985 | 35039 ft | 471 kts | 200° |
| 2026-05-05 17:32 | 16.40267 | -77.25953 | 35040 ft | 470 kts | 200° |
| 2026-05-05 17:32 | 16.34027 | -77.27906 | 35041 ft | 470 kts | 200° |
| 2026-05-05 17:33 | 16.27749 | -77.29875 | 35039 ft | 469 kts | 200° |
| 2026-05-05 17:33 | 16.21505 | -77.31830 | 35039 ft | 469 kts | 199° |
| 2026-05-05 17:34 | 16.15240 | -77.33780 | 35037 ft | 468 kts | 200° |
| 2026-05-05 17:34 | 16.09013 | -77.35727 | 35034 ft | 468 kts | 199° |
| 2026-05-05 17:35 | 16.02811 | -77.37655 | 35033 ft | 467 kts | 199° |
| 2026-05-05 17:35 | 15.96584 | -77.39600 | 35030 ft | 466 kts | 199° |
| 2026-05-05 17:36 | 15.90346 | -77.41539 | 35025 ft | 466 kts | 199° |
| 2026-05-05 17:36 | 15.84147 | -77.43469 | 35025 ft | 465 kts | 199° |
| 2026-05-05 17:37 | 15.77970 | -77.45393 | 35018 ft | 465 kts | 199° |
| 2026-05-05 17:37 | 15.71788 | -77.47306 | 35015 ft | 465 kts | 199° |
| 2026-05-05 17:38 | 15.65596 | -77.49224 | 35012 ft | 465 kts | 199° |
| 2026-05-05 17:38 | 15.59371 | -77.51166 | 35014 ft | 465 kts | 199° |
| 2026-05-05 17:39 | 15.53193 | -77.53086 | 35011 ft | 465 kts | 199° |
| 2026-05-05 17:39 | 15.47017 | -77.54997 | 35013 ft | 465 kts | 199° |
| 2026-05-05 17:40 | 15.40802 | -77.56918 | 35004 ft | 464 kts | 199° |
| 2026-05-05 17:40 | 15.34626 | -77.58832 | 35004 ft | 464 kts | 199° |
| 2026-05-05 17:41 | 15.28410 | -77.60751 | 35003 ft | 464 kts | 199° |
| 2026-05-05 17:41 | 15.22238 | -77.62654 | 34999 ft | 464 kts | 199° |
| 2026-05-05 17:42 | 15.16034 | -77.64576 | 34998 ft | 465 kts | 199° |
| 2026-05-05 17:42 | 15.09836 | -77.66494 | 35000 ft | 465 kts | 199° |
| 2026-05-05 17:43 | 15.03626 | -77.68407 | 34997 ft | 465 kts | 199° |
| 2026-05-05 17:43 | 14.97444 | -77.70312 | 34996 ft | 466 kts | 199° |
| 2026-05-05 17:44 | 14.91213 | -77.72227 | 35000 ft | 466 kts | 199° |
| 2026-05-05 17:44 | 14.85036 | -77.74136 | 35004 ft | 466 kts | 199° |
| 2026-05-05 17:45 | 14.78797 | -77.76062 | 35002 ft | 466 kts | 199° |
| 2026-05-05 17:45 | 14.72595 | -77.77971 | 34997 ft | 466 kts | 199° |
| 2026-05-05 17:46 | 14.66396 | -77.79868 | 34994 ft | 466 kts | 199° |
| 2026-05-05 17:46 | 14.60156 | -77.81783 | 34994 ft | 466 kts | 199° |
| 2026-05-05 17:47 | 14.53934 | -77.83704 | 34992 ft | 466 kts | 199° |
| 2026-05-05 17:47 | 14.47737 | -77.85605 | 34988 ft | 466 kts | 199° |
| 2026-05-05 17:48 | 14.41544 | -77.87496 | 34990 ft | 466 kts | 199° |
| 2026-05-05 17:48 | 14.35311 | -77.89405 | 34986 ft | 466 kts | 199° |
| 2026-05-05 17:49 | 14.29115 | -77.91308 | 34983 ft | 466 kts | 199° |
| 2026-05-05 17:49 | 14.22874 | -77.93223 | 34978 ft | 466 kts | 199° |
| 2026-05-05 17:50 | 14.16646 | -77.95128 | 34980 ft | 466 kts | 199° |
| 2026-05-05 17:50 | 14.10426 | -77.97026 | 34977 ft | 466 kts | 199° |
| 2026-05-05 17:51 | 14.04232 | -77.98920 | 34975 ft | 466 kts | 199° |
| 2026-05-05 17:51 | 13.98022 | -78.00816 | 34972 ft | 466 kts | 199° |
| 2026-05-05 17:52 | 13.91791 | -78.02719 | 34967 ft | 466 kts | 199° |
| 2026-05-05 17:52 | 13.85596 | -78.04613 | 34969 ft | 466 kts | 199° |
| 2026-05-05 17:53 | 13.79364 | -78.06506 | 34966 ft | 466 kts | 198° |
| 2026-05-05 17:53 | 13.73153 | -78.08398 | 34962 ft | 466 kts | 199° |
| 2026-05-05 17:54 | 13.66921 | -78.10302 | 34963 ft | 466 kts | 199° |
| 2026-05-05 17:54 | 13.60695 | -78.12196 | 34962 ft | 467 kts | 199° |
| 2026-05-05 17:55 | 13.54487 | -78.14094 | 34958 ft | 467 kts | 199° |
| 2026-05-05 17:55 | 13.48278 | -78.16097 | 34960 ft | 467 kts | 200° |
| 2026-05-05 17:56 | 13.42087 | -78.18136 | 34959 ft | 467 kts | 200° |
| 2026-05-05 17:56 | 13.35852 | -78.20154 | 34960 ft | 468 kts | 199° |
| 2026-05-05 17:57 | 13.29651 | -78.22138 | 34964 ft | 468 kts | 199° |
| 2026-05-05 17:57 | 13.23450 | -78.24128 | 34956 ft | 468 kts | 199° |
| 2026-05-05 17:58 | 13.17237 | -78.26125 | 34958 ft | 468 kts | 199° |
| 2026-05-05 17:58 | 13.10997 | -78.28135 | 34953 ft | 468 kts | 199° |
| 2026-05-05 17:59 | 13.04800 | -78.30132 | 34955 ft | 469 kts | 199° |
| 2026-05-05 17:59 | 12.98562 | -78.32129 | 34960 ft | 469 kts | 199° |
| 2026-05-05 18:00 | 12.92345 | -78.34125 | 34958 ft | 469 kts | 199° |
| 2026-05-05 18:00 | 12.86107 | -78.36131 | 34956 ft | 469 kts | 199° |
| 2026-05-05 18:01 | 12.79903 | -78.38116 | 34959 ft | 468 kts | 199° |
| 2026-05-05 18:01 | 12.73690 | -78.40106 | 34957 ft | 468 kts | 199° |
| 2026-05-05 18:02 | 12.67451 | -78.42107 | 34960 ft | 468 kts | 199° |
| 2026-05-05 18:02 | 12.61227 | -78.44099 | 34958 ft | 468 kts | 199° |
| 2026-05-05 18:03 | 12.55021 | -78.46077 | 34957 ft | 468 kts | 199° |
| 2026-05-05 18:03 | 12.48831 | -78.48061 | 34967 ft | 468 kts | 200° |
| 2026-05-05 18:04 | 12.42598 | -78.50067 | 34959 ft | 467 kts | 199° |
| 2026-05-05 18:04 | 12.36421 | -78.52043 | 34952 ft | 467 kts | 199° |
| 2026-05-05 18:05 | 12.30183 | -78.54029 | 34948 ft | 467 kts | 199° |
| 2026-05-05 18:05 | 12.24001 | -78.55998 | 34946 ft | 467 kts | 199° |
| 2026-05-05 18:06 | 12.17827 | -78.57970 | 34935 ft | 467 kts | 199° |
| 2026-05-05 18:06 | 12.11600 | -78.59948 | 34934 ft | 467 kts | 199° |
| 2026-05-05 18:07 | 12.05416 | -78.61912 | 34932 ft | 467 kts | 199° |
| 2026-05-05 18:07 | 11.99230 | -78.63885 | 34926 ft | 467 kts | 199° |
| 2026-05-05 18:08 | 11.93002 | -78.65867 | 34925 ft | 467 kts | 199° |
| 2026-05-05 18:08 | 11.86811 | -78.67833 | 34928 ft | 468 kts | 199° |
| 2026-05-05 18:09 | 11.80566 | -78.69823 | 34927 ft | 468 kts | 199° |
| 2026-05-05 18:09 | 11.74300 | -78.71729 | 34929 ft | 469 kts | 197° |
| 2026-05-05 18:10 | 11.68022 | -78.73504 | 34932 ft | 470 kts | 197° |
| 2026-05-05 18:10 | 11.61734 | -78.75271 | 34932 ft | 470 kts | 197° |
| 2026-05-05 18:11 | 11.55424 | -78.77087 | 34932 ft | 470 kts | 197° |
| 2026-05-05 18:11 | 11.49140 | -78.78915 | 34935 ft | 470 kts | 197° |
| 2026-05-05 18:12 | 11.42848 | -78.80736 | 34938 ft | 471 kts | 197° |
| 2026-05-05 18:12 | 11.36540 | -78.82547 | 34931 ft | 471 kts | 197° |
| 2026-05-05 18:13 | 11.30224 | -78.84369 | 34942 ft | 471 kts | 197° |
| 2026-05-05 18:13 | 11.23916 | -78.86186 | 34933 ft | 471 kts | 197° |
| 2026-05-05 18:14 | 11.17614 | -78.87999 | 34938 ft | 470 kts | 197° |
| 2026-05-05 18:14 | 11.11340 | -78.89811 | 34931 ft | 470 kts | 197° |
| 2026-05-05 18:15 | 11.05034 | -78.91623 | 34927 ft | 470 kts | 197° |
| 2026-05-05 18:15 | 10.98738 | -78.93434 | 34934 ft | 470 kts | 197° |
| 2026-05-05 18:16 | 10.92460 | -78.95240 | 34935 ft | 470 kts | 197° |
| 2026-05-05 18:16 | 10.87168 | -78.96761 | 34938 ft | 470 kts | 197° |
| 2026-05-05 18:17 | 10.80885 | -78.98559 | 34944 ft | 471 kts | 197° |
| 2026-05-05 18:17 | 10.74572 | -79.00369 | 34946 ft | 470 kts | 197° |
| 2026-05-05 18:18 | 10.68283 | -79.02177 | 34941 ft | 470 kts | 197° |
| 2026-05-05 18:18 | 10.62008 | -79.03982 | 34945 ft | 470 kts | 197° |
| 2026-05-05 18:19 | 10.55688 | -79.05796 | 34935 ft | 470 kts | 196° |
| 2026-05-05 18:19 | 10.49410 | -79.07594 | 34932 ft | 470 kts | 196° |
| 2026-05-05 18:20 | 10.43140 | -79.09390 | 34934 ft | 470 kts | 196° |
| 2026-05-05 18:20 | 10.36837 | -79.11187 | 34935 ft | 470 kts | 196° |
| 2026-05-05 18:21 | 10.30566 | -79.12972 | 34933 ft | 470 kts | 196° |
| 2026-05-05 18:21 | 10.24244 | -79.14776 | 34946 ft | 470 kts | 196° |
| 2026-05-05 18:22 | 10.17972 | -79.16573 | 34948 ft | 470 kts | 196° |
| 2026-05-05 18:22 | 10.11686 | -79.18366 | 34948 ft | 469 kts | 196° |
| 2026-05-05 18:23 | 10.05388 | -79.20171 | 34949 ft | 469 kts | 196° |
| 2026-05-05 18:23 | 9.99138 | -79.21960 | 34948 ft | 468 kts | 196° |
| 2026-05-05 18:24 | 9.92852 | -79.23757 | 34945 ft | 468 kts | 196° |
| 2026-05-05 18:24 | 9.86575 | -79.25548 | 34948 ft | 468 kts | 196° |
| 2026-05-05 18:25 | 9.80325 | -79.27328 | 34944 ft | 468 kts | 196° |
| 2026-05-05 18:25 | 9.74051 | -79.29114 | 34941 ft | 467 kts | 196° |
| 2026-05-05 18:26 | 9.67818 | -79.30894 | 34936 ft | 467 kts | 196° |
| 2026-05-05 18:26 | 9.61532 | -79.32677 | 34936 ft | 467 kts | 196° |
| 2026-05-05 18:27 | 9.55293 | -79.34452 | 34934 ft | 467 kts | 196° |
| 2026-05-05 18:27 | 9.49017 | -79.36242 | 34933 ft | 467 kts | 196° |
| 2026-05-05 18:28 | 9.39643 | -79.38908 | 34939 ft | 467 kts | 196° |
| 2026-05-05 18:28 | 9.33390 | -79.40680 | 34926 ft | 467 kts | 196° |
| 2026-05-05 18:29 | 9.27146 | -79.42456 | 34922 ft | 467 kts | 196° |
| 2026-05-05 18:29 | 9.20871 | -79.44249 | 34925 ft | 467 kts | 196° |
| 2026-05-05 18:30 | 9.14585 | -79.46038 | 34914 ft | 468 kts | 196° |
| 2026-05-05 18:30 | 9.08348 | -79.47805 | 34925 ft | 468 kts | 196° |
| 2026-05-05 18:31 | 9.02063 | -79.49583 | 34915 ft | 467 kts | 196° |
| 2026-05-05 18:31 | 8.95806 | -79.51356 | 34933 ft | 468 kts | 196° |
| 2026-05-05 18:32 | 8.89556 | -79.53132 | 34893 ft | 467 kts | 196° |
| 2026-05-05 18:32 | 8.83279 | -79.54913 | 34897 ft | 467 kts | 196° |
| 2026-05-05 18:33 | 8.76953 | -79.56243 | 34897 ft | 466 kts | 183° |
| 2026-05-05 18:33 | 8.70431 | -79.56441 | 34900 ft | 466 kts | 182° |
| 2026-05-05 18:34 | 8.63973 | -79.56632 | 34907 ft | 466 kts | 182° |
| 2026-05-05 18:34 | 8.57476 | -79.56826 | 34912 ft | 466 kts | 181° |
| 2026-05-05 18:35 | 8.51002 | -79.57021 | 34906 ft | 467 kts | 181° |
| 2026-05-05 18:35 | 8.44494 | -79.57221 | 34915 ft | 467 kts | 181° |
| 2026-05-05 18:36 | 8.38032 | -79.57418 | 34915 ft | 467 kts | 181° |
| 2026-05-05 18:36 | 8.31509 | -79.57609 | 34914 ft | 467 kts | 181° |
| 2026-05-05 18:37 | 8.25036 | -79.57798 | 34916 ft | 467 kts | 181° |
| 2026-05-05 18:37 | 8.18513 | -79.57991 | 34924 ft | 467 kts | 181° |
| 2026-05-05 18:38 | 8.12032 | -79.58180 | 34924 ft | 467 kts | 181° |
| 2026-05-05 18:38 | 8.05552 | -79.58373 | 34914 ft | 467 kts | 181° |
| 2026-05-05 18:39 | 7.99013 | -79.58567 | 34930 ft | 468 kts | 181° |
| 2026-05-05 18:39 | 7.92534 | -79.58757 | 34916 ft | 468 kts | 181° |
| 2026-05-05 18:40 | 7.86015 | -79.58949 | 34918 ft | 468 kts | 181° |
| 2026-05-05 18:40 | 7.79526 | -79.59143 | 34925 ft | 467 kts | 181° |
| 2026-05-05 18:41 | 7.73006 | -79.59338 | 34926 ft | 467 kts | 181° |
| 2026-05-05 18:41 | 7.66521 | -79.59532 | 34927 ft | 467 kts | 181° |
| 2026-05-05 18:42 | 7.60051 | -79.59720 | 34927 ft | 467 kts | 181° |
| 2026-05-05 18:42 | 7.53542 | -79.59909 | 34927 ft | 467 kts | 181° |
| 2026-05-05 18:43 | 7.47029 | -79.60106 | 34920 ft | 466 kts | 181° |
| 2026-05-05 18:43 | 7.40575 | -79.60296 | 34918 ft | 466 kts | 181° |
| 2026-05-05 18:44 | 7.34073 | -79.60488 | 34914 ft | 466 kts | 181° |
| 2026-05-05 18:44 | 7.27578 | -79.60683 | 34914 ft | 466 kts | 181° |
| 2026-05-05 18:45 | 7.21123 | -79.60872 | 34913 ft | 466 kts | 181° |
| 2026-05-05 18:45 | 7.14612 | -79.61056 | 34916 ft | 466 kts | 181° |
| 2026-05-05 18:46 | 7.08114 | -79.61235 | 34914 ft | 467 kts | 181° |
| 2026-05-05 18:46 | 7.01632 | -79.61418 | 34915 ft | 467 kts | 181° |
| 2026-05-05 18:47 | 6.95162 | -79.61607 | 34917 ft | 467 kts | 181° |
| 2026-05-05 18:47 | 6.88641 | -79.61791 | 34907 ft | 467 kts | 180° |
| 2026-05-05 18:48 | 6.82169 | -79.61968 | 34910 ft | 467 kts | 180° |
| 2026-05-05 18:48 | 6.75661 | -79.62152 | 34909 ft | 467 kts | 180° |
| 2026-05-05 18:49 | 6.69151 | -79.62342 | 34914 ft | 467 kts | 180° |
| 2026-05-05 18:49 | 6.62679 | -79.62529 | 34905 ft | 466 kts | 180° |
| 2026-05-05 18:50 | 6.56204 | -79.62710 | 34904 ft | 467 kts | 180° |
| 2026-05-05 18:50 | 6.49701 | -79.62896 | 34899 ft | 467 kts | 180° |
| 2026-05-05 18:51 | 6.43217 | -79.63076 | 34896 ft | 468 kts | 180° |
| 2026-05-05 18:51 | 6.36679 | -79.63256 | 34887 ft | 468 kts | 180° |
| 2026-05-05 18:52 | 6.30195 | -79.63439 | 34888 ft | 469 kts | 180° |
| 2026-05-05 18:52 | 6.23653 | -79.63628 | 34887 ft | 469 kts | 180° |
| 2026-05-05 18:53 | 6.17142 | -79.63811 | 34889 ft | 470 kts | 180° |
| 2026-05-05 18:53 | 6.10591 | -79.63995 | 34893 ft | 470 kts | 180° |
| 2026-05-05 18:54 | 6.04073 | -79.64179 | 34892 ft | 470 kts | 180° |
| 2026-05-05 18:54 | 5.97515 | -79.64368 | 34893 ft | 470 kts | 180° |
| 2026-05-05 18:55 | 5.90994 | -79.64553 | 34893 ft | 470 kts | 180° |
| 2026-05-05 18:55 | 5.84452 | -79.64741 | 34895 ft | 470 kts | 180° |
| 2026-05-05 18:56 | 5.77941 | -79.64920 | 34899 ft | 469 kts | 180° |
| 2026-05-05 18:56 | 5.71383 | -79.65102 | 34901 ft | 469 kts | 180° |
| 2026-05-05 18:57 | 5.64884 | -79.65287 | 34896 ft | 469 kts | 180° |
| 2026-05-05 18:57 | 5.58368 | -79.65469 | 34896 ft | 469 kts | 180° |
| 2026-05-05 18:58 | 5.51827 | -79.65654 | 34894 ft | 469 kts | 181° |
| 2026-05-05 18:58 | 5.45306 | -79.65839 | 34892 ft | 469 kts | 181° |
| 2026-05-05 18:59 | 5.38789 | -79.66020 | 34891 ft | 470 kts | 181° |
| 2026-05-05 18:59 | 5.32237 | -79.66208 | 34890 ft | 470 kts | 181° |
| 2026-05-05 19:00 | 5.25715 | -79.66392 | 34887 ft | 470 kts | 181° |
| 2026-05-05 19:00 | 5.19200 | -79.66575 | 34891 ft | 470 kts | 180° |
| 2026-05-05 19:01 | 5.12658 | -79.66783 | 34892 ft | 470 kts | 181° |
| 2026-05-05 19:01 | 5.06149 | -79.67083 | 34891 ft | 470 kts | 182° |
| 2026-05-05 19:02 | 4.99600 | -79.67405 | 34895 ft | 469 kts | 181° |
| 2026-05-05 19:02 | 4.93089 | -79.67700 | 34893 ft | 469 kts | 181° |
| 2026-05-05 19:03 | 4.87646 | -79.67940 | 34897 ft | 469 kts | 181° |
| 2026-05-05 19:03 | 4.80038 | -79.68281 | 34894 ft | 469 kts | 181° |
| 2026-05-05 19:04 | 4.74597 | -79.68524 | 34896 ft | 469 kts | 181° |
| 2026-05-05 19:04 | 4.68102 | -79.68812 | 34903 ft | 469 kts | 181° |
| 2026-05-05 19:05 | 4.61563 | -79.69113 | 34903 ft | 469 kts | 181° |
| 2026-05-05 19:05 | 4.55063 | -79.69406 | 34895 ft | 469 kts | 181° |
| 2026-05-05 19:06 | 4.48542 | -79.69689 | 34902 ft | 469 kts | 181° |
| 2026-05-05 19:06 | 4.42017 | -79.69977 | 34898 ft | 469 kts | 181° |
| 2026-05-05 19:07 | 4.35520 | -79.70276 | 34898 ft | 469 kts | 181° |
| 2026-05-05 19:07 | 4.28972 | -79.70573 | 34894 ft | 469 kts | 181° |
| 2026-05-05 19:08 | 4.22479 | -79.70861 | 34892 ft | 469 kts | 181° |
| 2026-05-05 19:08 | 4.15914 | -79.71150 | 34894 ft | 470 kts | 181° |
| 2026-05-05 19:09 | 4.09406 | -79.71432 | 34895 ft | 470 kts | 181° |
| 2026-05-05 19:09 | 4.02850 | -79.71719 | 34897 ft | 470 kts | 181° |
| 2026-05-05 19:10 | 3.96331 | -79.72013 | 34890 ft | 470 kts | 181° |
| 2026-05-05 19:10 | 3.89774 | -79.72313 | 34897 ft | 471 kts | 181° |
| 2026-05-05 19:11 | 3.83247 | -79.72606 | 34899 ft | 471 kts | 181° |
| 2026-05-05 19:11 | 3.76722 | -79.72893 | 34897 ft | 471 kts | 181° |
| 2026-05-05 19:12 | 3.70162 | -79.73184 | 34901 ft | 471 kts | 181° |
| 2026-05-05 19:12 | 3.63635 | -79.73474 | 34899 ft | 471 kts | 181° |
| 2026-05-05 19:13 | 3.57073 | -79.73765 | 34906 ft | 471 kts | 181° |
| 2026-05-05 19:13 | 3.50550 | -79.74061 | 34903 ft | 471 kts | 181° |
| 2026-05-05 19:14 | 3.43980 | -79.74348 | 34897 ft | 471 kts | 181° |
| 2026-05-05 19:14 | 3.37442 | -79.74632 | 34902 ft | 471 kts | 181° |
| 2026-05-05 19:15 | 3.30917 | -79.74929 | 34900 ft | 471 kts | 181° |
| 2026-05-05 19:15 | 3.24367 | -79.75224 | 34897 ft | 471 kts | 181° |
| 2026-05-05 19:16 | 3.17811 | -79.75515 | 34901 ft | 471 kts | 181° |
| 2026-05-05 19:16 | 3.11291 | -79.75803 | 34900 ft | 470 kts | 181° |
| 2026-05-05 19:17 | 3.04764 | -79.76092 | 34897 ft | 470 kts | 181° |
| 2026-05-05 19:17 | 2.98197 | -79.76384 | 34895 ft | 470 kts | 181° |
| 2026-05-05 19:18 | 2.91682 | -79.76675 | 34895 ft | 470 kts | 181° |
| 2026-05-05 19:18 | 2.85153 | -79.76971 | 34897 ft | 470 kts | 181° |
| 2026-05-05 19:19 | 2.78601 | -79.77263 | 34898 ft | 470 kts | 181° |
| 2026-05-05 19:19 | 2.72079 | -79.77550 | 34892 ft | 470 kts | 181° |
| 2026-05-05 19:20 | 2.65527 | -79.77839 | 34895 ft | 470 kts | 181° |
| 2026-05-05 19:20 | 2.59011 | -79.78118 | 34893 ft | 470 kts | 181° |
| 2026-05-05 19:21 | 2.52473 | -79.78404 | 34894 ft | 470 kts | 181° |
| 2026-05-05 19:21 | 2.45917 | -79.78700 | 34894 ft | 470 kts | 181° |
| 2026-05-05 19:22 | 2.39399 | -79.78992 | 34895 ft | 471 kts | 181° |
| 2026-05-05 19:22 | 2.32825 | -79.79287 | 34898 ft | 471 kts | 181° |
| 2026-05-05 19:23 | 2.26307 | -79.79580 | 34895 ft | 471 kts | 181° |
| 2026-05-05 19:23 | 2.19773 | -79.79862 | 34896 ft | 471 kts | 181° |
| 2026-05-05 19:24 | 2.13215 | -79.80146 | 34900 ft | 471 kts | 181° |
| 2026-05-05 19:24 | 2.06676 | -79.80437 | 34897 ft | 470 kts | 181° |
| 2026-05-05 19:25 | 2.00120 | -79.80738 | 34894 ft | 470 kts | 181° |
| 2026-05-05 19:25 | 1.93602 | -79.81029 | 34892 ft | 470 kts | 181° |
| 2026-05-05 19:26 | 1.87056 | -79.81314 | 34889 ft | 470 kts | 181° |
| 2026-05-05 19:26 | 1.80538 | -79.81602 | 34890 ft | 470 kts | 181° |
| 2026-05-05 19:27 | 1.73984 | -79.81893 | 34892 ft | 470 kts | 181° |
| 2026-05-05 19:27 | 1.67470 | -79.82178 | 34894 ft | 470 kts | 181° |
| 2026-05-05 19:28 | 1.60922 | -79.82471 | 34892 ft | 470 kts | 181° |
| 2026-05-05 19:28 | 1.54410 | -79.82762 | 34891 ft | 470 kts | 181° |
| 2026-05-05 19:29 | 1.47887 | -79.83054 | 34892 ft | 470 kts | 181° |
| 2026-05-05 19:29 | 1.41326 | -79.83294 | 34892 ft | 470 kts | 176° |
| 2026-05-05 19:30 | 1.34820 | -79.82888 | 34893 ft | 469 kts | 175° |
| 2026-05-05 19:30 | 1.28276 | -79.82464 | 34893 ft | 470 kts | 175° |
| 2026-05-05 19:31 | 1.21758 | -79.82045 | 34899 ft | 470 kts | 175° |
| 2026-05-05 19:31 | 1.15261 | -79.81629 | 34911 ft | 470 kts | 175° |
| 2026-05-05 19:32 | 1.08718 | -79.81214 | 34913 ft | 470 kts | 175° |
| 2026-05-05 19:32 | 1.02194 | -79.80793 | 34915 ft | 470 kts | 175° |
| 2026-05-05 19:33 | 0.95688 | -79.80368 | 34919 ft | 469 kts | 175° |
| 2026-05-05 19:33 | 0.89194 | -79.79956 | 34919 ft | 469 kts | 175° |
| 2026-05-05 19:34 | 0.82662 | -79.79540 | 34920 ft | 469 kts | 175° |
| 2026-05-05 19:35 | 0.72876 | -79.78910 | 34919 ft | 469 kts | 175° |
| 2026-05-05 19:35 | 0.66384 | -79.78495 | 34926 ft | 469 kts | 175° |
| 2026-05-05 19:36 | 0.59852 | -79.78076 | 34923 ft | 469 kts | 175° |
| 2026-05-05 19:36 | 0.53332 | -79.77657 | 34934 ft | 469 kts | 175° |
| 2026-05-05 19:37 | 0.46863 | -79.77240 | 34938 ft | 468 kts | 175° |
| 2026-05-05 19:37 | 0.40350 | -79.76821 | 34942 ft | 468 kts | 175° |
| 2026-05-05 19:38 | 0.33834 | -79.76403 | 34946 ft | 468 kts | 175° |
| 2026-05-05 19:38 | 0.27380 | -79.75990 | 34940 ft | 468 kts | 175° |
| 2026-05-05 19:39 | 0.20856 | -79.75578 | 34947 ft | 467 kts | 175° |
| 2026-05-05 19:39 | 0.14402 | -79.75163 | 34947 ft | 467 kts | 175° |
| 2026-05-05 19:40 | 0.07901 | -79.74743 | 34953 ft | 467 kts | 175° |
| 2026-05-05 19:40 | 0.01403 | -79.74324 | 34959 ft | 467 kts | 175° |
| 2026-05-05 19:41 | -0.05067 | -79.73910 | 34960 ft | 467 kts | 175° |
| 2026-05-05 19:41 | -0.11579 | -79.73488 | 34955 ft | 467 kts | 175° |
| 2026-05-05 19:42 | -0.18045 | -79.73077 | 34967 ft | 468 kts | 175° |
| 2026-05-05 19:42 | -0.24564 | -79.72663 | 34968 ft | 467 kts | 175° |
| 2026-05-05 19:43 | -0.31030 | -79.72244 | 34969 ft | 467 kts | 175° |
| 2026-05-05 19:43 | -0.37544 | -79.71820 | 34972 ft | 467 kts | 175° |
| 2026-05-05 19:44 | -0.43991 | -79.71408 | 34972 ft | 467 kts | 175° |
| 2026-05-05 19:44 | -0.50502 | -79.70989 | 34975 ft | 467 kts | 175° |
| 2026-05-05 19:45 | -0.56973 | -79.70573 | 34972 ft | 467 kts | 175° |
| 2026-05-05 19:45 | -0.63434 | -79.70159 | 34973 ft | 467 kts | 175° |
| 2026-05-05 19:46 | -0.69948 | -79.69740 | 34967 ft | 467 kts | 175° |
| 2026-05-05 19:46 | -0.76420 | -79.69325 | 34960 ft | 467 kts | 175° |
| 2026-05-05 19:47 | -0.82905 | -79.68909 | 34958 ft | 468 kts | 175° |
| 2026-05-05 19:47 | -0.89418 | -79.68497 | 34712 ft | 469 kts | 175° |
| 2026-05-05 19:47 | -0.92730 | -79.68284 | 33565 ft | 482 kts | 174° |
| 2026-05-05 19:48 | -0.96072 | -79.68064 | 32509 ft | 491 kts | 174° |
| 2026-05-05 19:48 | -0.99518 | -79.67836 | 31535 ft | 496 kts | 174° |
| 2026-05-05 19:48 | -1.02999 | -79.67609 | 30643 ft | 500 kts | 173° |
| 2026-05-05 19:48 | -1.06450 | -79.67387 | 29639 ft | 504 kts | 173° |
| 2026-05-05 19:49 | -1.09958 | -79.67164 | 28732 ft | 504 kts | 174° |
| 2026-05-05 19:49 | -1.12289 | -79.67016 | 28063 ft | 501 kts | 174° |
| 2026-05-05 19:49 | -1.16896 | -79.66727 | 25943 ft | 497 kts | 174° |
| 2026-05-05 19:49 | -1.20307 | -79.66511 | 25085 ft | 478 kts | 174° |
| 2026-05-05 19:50 | -1.22456 | -79.66376 | 24924 ft | 455 kts | 174° |
| 2026-05-05 19:50 | -1.25566 | -79.66180 | 24269 ft | 437 kts | 174° |
| 2026-05-05 19:50 | -1.28559 | -79.65987 | 23621 ft | 436 kts | 174° |
| 2026-05-05 19:50 | -1.31579 | -79.65789 | 22890 ft | 432 kts | 174° |
| 2026-05-05 19:51 | -1.34612 | -79.65590 | 22262 ft | 434 kts | 174° |
| 2026-05-05 19:51 | -1.37623 | -79.65395 | 21642 ft | 431 kts | 174° |
| 2026-05-05 19:51 | -1.40578 | -79.65205 | 21043 ft | 429 kts | 175° |
| 2026-05-05 19:51 | -1.43550 | -79.65014 | 20453 ft | 427 kts | 175° |
| 2026-05-05 19:52 | -1.46527 | -79.64880 | 19863 ft | 426 kts | 180° |
| 2026-05-05 19:52 | -1.49433 | -79.65187 | 19321 ft | 425 kts | 190° |
| 2026-05-05 19:52 | -1.52273 | -79.66016 | 18760 ft | 425 kts | 201° |
| 2026-05-05 19:52 | -1.54935 | -79.67322 | 18222 ft | 424 kts | 208° |
| 2026-05-05 19:53 | -1.57524 | -79.68740 | 17641 ft | 421 kts | 208° |
| 2026-05-05 19:53 | -1.60064 | -79.70122 | 17136 ft | 418 kts | 207° |
| 2026-05-05 19:53 | -1.62624 | -79.71505 | 16626 ft | 414 kts | 207° |
| 2026-05-05 19:53 | -1.65153 | -79.72869 | 16128 ft | 409 kts | 207° |
| 2026-05-05 19:54 | -1.67644 | -79.74211 | 15625 ft | 404 kts | 207° |
| 2026-05-05 19:54 | -1.70083 | -79.75527 | 15121 ft | 400 kts | 207° |
| 2026-05-05 19:54 | -1.72527 | -79.76849 | 14604 ft | 397 kts | 207° |
| 2026-05-05 19:54 | -1.74957 | -79.78163 | 14088 ft | 395 kts | 207° |
| 2026-05-05 19:55 | -1.77383 | -79.79476 | 13520 ft | 393 kts | 207° |
| 2026-05-05 19:55 | -1.79760 | -79.80763 | 12950 ft | 391 kts | 207° |
| 2026-05-05 19:55 | -1.82156 | -79.82061 | 12371 ft | 388 kts | 207° |
| 2026-05-05 19:55 | -1.84502 | -79.83333 | 11797 ft | 386 kts | 207° |
| 2026-05-05 19:56 | -1.86854 | -79.84608 | 11201 ft | 385 kts | 207° |
| 2026-05-05 19:56 | -1.89218 | -79.85890 | 10777 ft | 379 kts | 207° |
| 2026-05-05 19:56 | -1.91473 | -79.87114 | 10608 ft | 351 kts | 207° |
| 2026-05-05 19:56 | -1.93504 | -79.88217 | 10443 ft | 322 kts | 207° |
| 2026-05-05 19:57 | -1.95423 | -79.89259 | 10060 ft | 304 kts | 207° |
| 2026-05-05 19:57 | -1.97260 | -79.90253 | 9829 ft | 299 kts | 207° |
| 2026-05-05 19:57 | -1.99084 | -79.91241 | 9706 ft | 298 kts | 207° |
| 2026-05-05 19:57 | -2.00894 | -79.92221 | 9577 ft | 296 kts | 207° |
| 2026-05-05 19:58 | -2.02671 | -79.93183 | 9460 ft | 284 kts | 207° |
| 2026-05-05 19:58 | -2.04380 | -79.94109 | 9323 ft | 273 kts | 207° |
| 2026-05-05 19:58 | -2.06022 | -79.94998 | 9198 ft | 263 kts | 207° |
| 2026-05-05 19:58 | -2.07590 | -79.95845 | 9071 ft | 253 kts | 207° |
| 2026-05-05 19:59 | -2.09126 | -79.96675 | 8944 ft | 249 kts | 207° |
| 2026-05-05 19:59 | -2.10647 | -79.97500 | 8819 ft | 248 kts | 207° |
| 2026-05-05 19:59 | -2.12146 | -79.98311 | 8697 ft | 247 kts | 207° |
| 2026-05-05 19:59 | -2.13655 | -79.99130 | 8483 ft | 244 kts | 207° |
| 2026-05-05 20:00 | -2.15155 | -79.99945 | 8178 ft | 248 kts | 207° |
| 2026-05-05 20:00 | -2.16661 | -80.00762 | 7840 ft | 249 kts | 207° |
| 2026-05-05 20:00 | -2.18194 | -80.01593 | 7488 ft | 250 kts | 207° |
| 2026-05-05 20:00 | -2.19732 | -80.02426 | 7120 ft | 253 kts | 207° |
| 2026-05-05 20:01 | -2.21285 | -80.03268 | 6746 ft | 254 kts | 208° |
| 2026-05-05 20:01 | -2.22855 | -80.04117 | 6375 ft | 256 kts | 208° |
| 2026-05-05 20:01 | -2.24449 | -80.04860 | 5982 ft | 249 kts | 192° |
| 2026-05-05 20:01 | -2.26132 | -80.04776 | 5624 ft | 242 kts | 158° |
| 2026-05-05 20:02 | -2.27440 | -80.03806 | 5209 ft | 241 kts | 126° |
| 2026-05-05 20:02 | -2.28309 | -80.02369 | 4795 ft | 241 kts | 120° |
| 2026-05-05 20:02 | -2.29153 | -80.00910 | 4363 ft | 243 kts | 120° |
| 2026-05-05 20:02 | -2.29990 | -79.99441 | 3950 ft | 241 kts | 116° |
| 2026-05-05 20:03 | -2.30277 | -79.97837 | 3547 ft | 240 kts | 80° |
| 2026-05-05 20:03 | -2.29516 | -79.96378 | 3131 ft | 238 kts | 41° |
| 2026-05-05 20:03 | -2.28137 | -79.95487 | 2821 ft | 232 kts | 28° |
| 2026-05-05 20:03 | -2.26771 | -79.94706 | 2458 ft | 224 kts | 28° |
| 2026-05-05 20:04 | -2.25436 | -79.93945 | 2093 ft | 216 kts | 29° |
| 2026-05-05 20:04 | -2.24141 | -79.93205 | 1735 ft | 212 kts | 29° |
| 2026-05-05 20:04 | -2.22909 | -79.92499 | 1451 ft | 200 kts | 29° |
| 2026-05-05 20:04 | -2.21739 | -79.91827 | 1185 ft | 187 kts | 28° |
| 2026-05-05 20:05 | -2.20638 | -79.91193 | 972 ft | 175 kts | 30° |
| 2026-05-05 20:05 | -2.19624 | -79.90610 | 728 ft | 165 kts | 31° |
| 2026-05-05 20:05 | -2.18671 | -79.90061 | 509 ft | 152 kts | 31° |
| 2026-05-05 20:05 | -2.17766 | -79.89538 | 277 ft | 151 kts | 31° |
| 2026-05-05 20:06 | -2.16872 | -79.89011 | 92 ft | 144 kts | 31° |
| 2026-05-05 20:06 | -2.16047 | -79.88542 | 24 ft | 122 kts | 30° |
| 2026-05-05 20:06 | -2.15565 | -79.88266 | 21 ft | 44 kts | 30° |
| 2026-05-05 20:06 | -2.15409 | -79.88177 | 22 ft | 11 kts | 29° |
| 2026-05-05 20:07 | -2.15330 | -79.88149 | 22 ft | 12 kts | 346° |
| 2026-05-05 20:07 | -2.15276 | -79.88200 | 22 ft | 10 kts | 300° |
| 2026-05-05 20:07 | -2.15243 | -79.88260 | 22 ft | 9 kts | 299° |
| 2026-05-05 20:07 | -2.15213 | -79.88313 | 22 ft | 9 kts | 299° |
| 2026-05-05 20:08 | -2.15161 | -79.88387 | 22 ft | 14 kts | 329° |
| 2026-05-05 20:08 | -2.15072 | -79.88362 | 24 ft | 15 kts | 28° |
| 2026-05-05 20:08 | -2.14949 | -79.88292 | 23 ft | 23 kts | 30° |
| 2026-05-05 20:08 | -2.14829 | -79.88223 | 22 ft | 13 kts | 30° |
| 2026-05-05 20:09 | -2.14760 | -79.88190 | 23 ft | 9 kts | 359° |
| 2026-05-05 20:09 | -2.14730 | -79.88215 | 22 ft | 3 kts | 292° |
| 2026-05-05 20:09 | -2.14724 | -79.88230 | 22 ft | 2 kts | 294° |
| 2026-05-05 20:09 | -2.14721 | -79.88238 | 22 ft | 1 kts | 295° |
| 2026-05-05 20:10 | -2.14720 | -79.88239 | 22 ft | 0 kts | 295° |